Saturday, December 15, 2018, 10:02 AM EST
Back to Local

KUNV, State College, University Park Airport

Location: State College, PA, United States Lat: 40.85
Local Time: 10:02 AM EST (15:02 GMT) Lon: -77.85
Time Zone: US/Eastern Elev: 1240 ft

Show me the last for .
Show Decoded

2018-12-15 09:53 METAR KUNV 151453Z 00000KT 1SM -DZ BKN002 OVC007 04/04 A3014 =
2018-12-15 08:53 METAR KUNV 151353Z 00000KT 1/4SM FG OVC002 03/03 A3014 =
2018-12-15 07:53 METAR KUNV 151253Z 00000KT 1/4SM FG OVC002 03/03 A3014 =
2018-12-15 06:53 METAR KUNV 151153Z 00000KT 1/4SM FG OVC002 03/03 A3015 =
2018-12-15 05:53 METAR KUNV 151053Z 06003KT 1/4SM FG OVC002 03/03 A3015 =
2018-12-15 05:37 METAR KUNV 151037Z AUTO 04005KT 1/4SM FG OVC002 03/03 A3014 RMK AO2 P0001
                 T00290029 =
2018-12-15 05:16 METAR KUNV 151016Z AUTO 05004KT 1/4SM FG BKN002 OVC006 03/03 A3013 RMK AO2
                 T00280028 =
2018-12-15 04:57 METAR KUNV 150957Z AUTO 01005KT 1SM BR BKN002 OVC011 03/03 A3014 RMK AO2
                 T00290029 =
2018-12-15 04:36 METAR KUNV 150936Z AUTO 00000KT 1 3/4SM BR BKN002 OVC007 03/03 A3014 RMK AO2
                 T00300030 =
2018-12-15 04:16 METAR KUNV 150916Z AUTO 00000KT 1 1/4SM BR BKN007 OVC015 03/03 A3016 RMK AO2
                 T00300030 =
2018-12-15 03:56 METAR KUNV 150856Z AUTO 00000KT 1 1/4SM BR SCT002 OVC013 03/03 A3017 RMK AO2
                 60008 T00300030 =
2018-12-15 03:37 METAR KUNV 150837Z AUTO 34004KT 1 1/2SM BR SCT002 OVC013 03/03 A3017 RMK AO2
                 T00300030 =
2018-12-15 03:16 METAR KUNV 150816Z AUTO 00000KT 1SM BR SCT002 OVC013 03/03 A3017 RMK AO2
                 T00300030 =
2018-12-15 02:56 METAR KUNV 150756Z AUTO 00000KT 1/2SM FG OVC015 03/03 A3018 RMK AO2 P0001
                 T00290029 =
2018-12-15 02:36 METAR KUNV 150736Z AUTO 00000KT 1/2SM FG SCT002 OVC015 03/03 A3018 RMK AO2 P0001
                 T00280028 =
2018-12-15 02:16 METAR KUNV 150716Z AUTO 00000KT 1 3/4SM RA SCT002 BKN007 OVC015 03/03 A3019 RMK
                 AO2 P0001 T00300030 =
2018-12-15 01:57 METAR KUNV 150657Z AUTO 05003KT 1 1/4SM -RA SCT002 BKN007 OVC017 03/03 A3019 RMK
                 AO2 P0007 T00300030 =
2018-12-15 01:36 METAR KUNV 150636Z AUTO 07003KT 3/4SM -RA BKN002 BKN005 OVC017 03/03 A3020 RMK
                 AO2 P0005 T00300030 =
2018-12-15 01:16 METAR KUNV 150616Z AUTO 00000KT 1/4SM -RA BKN002 BKN007 OVC011 03/03 A3020 RMK
                 AO2 P0002 T00300029 =
2018-12-15 00:56 METAR KUNV 150556Z AUTO 00000KT 1/4SM -RA BKN002 OVC010 03/03 A3021 RMK AO2
                 P0005 60016 T00300028 10037 20030 =
2018-12-15 00:37 METAR KUNV 150537Z AUTO 00000KT 1 1/2SM -RA OVC012 03/03 A3021 RMK AO2 P0003
                 T00300028 =
2018-12-15 00:16 METAR KUNV 150516Z AUTO 00000KT 2 1/2SM -RA BKN012 OVC023 03/03 A3021 RMK AO2
                 P0001 T00310030 =
2018-12-14 23:57 METAR KUNV 150457Z AUTO 00000KT 2 1/2SM -RA SCT012 BKN023 OVC043 03/03 A3021 RMK
                 AO2 P0007 T00310028 =
2018-12-14 23:36 METAR KUNV 150436Z AUTO 30003KT 2 1/2SM RA SCT032 BKN043 OVC050 03/03 A3021 RMK
                 AO2 P0004 T00310028 =
2018-12-14 23:16 METAR KUNV 150416Z AUTO 00000KT 3SM -RA SCT012 BKN027 OVC049 03/03 A3021 RMK AO2
                 P0002 T00330030 =
2018-12-14 22:57 METAR KUNV 150357Z AUTO 00000KT 5SM -RA SCT012 BKN027 OVC049 04/03 A3021 RMK AO2
                 P0002 T00360030 =
2018-12-14 22:37 METAR KUNV 150337Z AUTO 22005KT 5SM RA BKN030 OVC046 04/03 A3022 RMK AO2 P0001
                 T00360030 =
2018-12-14 22:16 METAR KUNV 150316Z AUTO 21003KT 5SM DZ BKN032 OVC045 04/03 A3023 RMK AO2
                 T00370030 =
2018-12-14 21:53 METAR KUNV 150253Z 24003KT 4SM -RA BR BKN032 OVC043 03/03 A3023 =
2018-12-14 20:53 METAR KUNV 150153Z 28004KT 4SM -DZ SCT037 OVC070 03/03 A3025 =
2018-12-14 19:53 METAR KUNV 150053Z 27006KT 5SM BR OVC037 03/03 A3026 =
2018-12-14 18:53 METAR KUNV 142353Z 27006KT 5SM BR OVC039 03/03 A3025 =
2018-12-14 17:53 METAR KUNV 142253Z 00000KT 4SM BR BKN045 03/03 A3026 =
2018-12-14 16:53 METAR KUNV 142153Z 00000KT 3SM BR OVC045 04/03 A3027 =
2018-12-14 15:53 METAR KUNV 142053Z 23006KT 2SM BRHZ SCT017 OVC024 04/03 A3029 =
2018-12-14 14:53 METAR KUNV 141953Z 21007KT 2SM HZ OVC017 05/02 A3027 =
2018-12-14 13:53 METAR KUNV 141853Z 20004KT 7SM HZ SCT023 BKN030 OVC080 05/01 A3027 =
2018-12-14 12:53 METAR KUNV 141753Z 23007KT 10SM BKN095 06/01 A3029 =
2018-12-14 11:53 METAR KUNV 141653Z 22007KT 10SM BKN050 05/02 A3030 =
2018-12-14 10:53 METAR KUNV 141553Z 21005KT 10SM SKC 05/02 A3033 =

Support USWX by starting your Amazon purchase here.